Time;durP1;ratioP1;P1;durP2;ratioP2;P2;SDS_P1;SDS_P2;PMS_P1;PMS_P2;Temp;Humidity;BMP_temperature;BMP_pressure;BME280_temperature;BME280_humidity;BME280_pressure;Samples;Min_cycle;Max_cycle;Signal;HPM_P1;HPM_P2
2021/04/03 00:02:15;;;;;;;8.73;3.83;;;7.70;59.30;;;;;;6243037;23;20040;-79
2021/04/03 00:04:41;;;;;;;7.82;3.80;;;7.70;59.30;;;;;;6244137;23;20079;-78
2021/04/03 00:07:07;;;;;;;7.05;3.72;;;7.70;59.60;;;;;;6244085;23;20012;-78
2021/04/03 00:09:32;;;;;;;7.32;3.63;;;7.70;59.90;;;;;;6244873;23;19996;-79
2021/04/03 00:11:58;;;;;;;7.07;4.10;;;7.70;59.80;;;;;;6246133;23;20014;-78
2021/04/03 00:14:24;;;;;;;6.25;3.72;;;7.70;59.80;;;;;;6243244;23;20004;-78
2021/04/03 00:16:49;;;;;;;8.40;4.07;;;7.70;59.80;;;;;;6245601;23;20005;-79
2021/04/03 00:19:15;;;;;;;6.40;3.75;;;7.70;60.40;;;;;;6243198;23;20428;-78
2021/04/03 00:21:41;;;;;;;7.95;3.67;;;7.70;59.90;;;;;;6244146;23;20383;-79
2021/04/03 00:24:07;;;;;;;7.72;3.78;;;7.70;59.60;;;;;;6244237;23;20004;-78
2021/04/03 00:26:32;;;;;;;8.93;3.67;;;7.80;58.40;;;;;;6242035;23;20008;-79
2021/04/03 00:28:58;;;;;;;7.07;3.50;;;7.80;58.00;;;;;;6244128;23;20014;-79
2021/04/03 00:31:24;;;;;;;6.97;3.65;;;7.90;58.10;;;;;;6246085;23;19996;-78
2021/04/03 00:33:51;;;;;;;6.07;3.70;;;8.00;57.90;;;;;;6246329;23;20063;-79
2021/04/03 00:36:17;;;;;;;5.68;3.47;;;7.90;59.50;;;;;;6247107;23;20003;-78
2021/04/03 00:38:43;;;;;;;8.52;3.92;;;7.90;59.10;;;;;;6247490;23;20004;-78
2021/04/03 00:41:08;;;;;;;11.10;4.20;;;8.00;59.20;;;;;;6244818;23;20327;-78
2021/04/03 00:43:34;;;;;;;8.85;4.85;;;8.10;58.80;;;;;;6244846;23;20015;-78
2021/04/03 00:46:00;;;;;;;8.38;3.60;;;8.30;58.40;;;;;;6245917;23;20011;-79
2021/04/03 00:48:25;;;;;;;7.82;3.92;;;8.20;57.60;;;;;;6245256;23;20010;-79
2021/04/03 00:50:53;;;;;;;6.90;3.85;;;8.20;57.70;;;;;;6245436;23;20005;-78
2021/04/03 00:53:22;;;;;;;6.88;3.50;;;8.20;58.60;;;;;;6245799;23;20008;-78
2021/04/03 00:55:48;;;;;;;6.13;3.00;;;8.10;58.60;;;;;;6245458;23;20000;-79
2021/04/03 00:58:15;;;;;;;6.60;3.75;;;8.00;59.30;;;;;;6245452;23;20080;-78
2021/04/03 01:00:41;;;;;;;7.32;3.70;;;8.00;58.90;;;;;;6244864;23;20004;-79
2021/04/03 01:03:07;;;;;;;7.60;3.40;;;8.00;58.80;;;;;;6245311;23;20347;-79
2021/04/03 01:05:33;;;;;;;6.05;3.20;;;8.10;58.40;;;;;;6246844;22;19996;-78
2021/04/03 01:08:00;;;;;;;7.05;3.40;;;8.10;58.70;;;;;;6246885;23;20000;-79
2021/04/03 01:10:32;;;;;;;6.78;3.60;;;8.10;58.80;;;;;;6270412;22;20055;-78
2021/04/03 01:13:25;;;;;;;6.20;3.33;;;8.20;58.40;;;;;;6239368;23;20035;-78
2021/04/03 01:16:15;;;;;;;6.18;3.30;;;8.20;57.80;;;;;;6247101;23;20004;-79
2021/04/03 01:19:26;;;;;;;9.93;3.15;;;8.20;57.80;;;;;;6244831;23;20000;-79
2021/04/03 01:22:36;;;;;;;6.80;3.83;;;8.10;57.90;;;;;;6198943;23;20016;-78
2021/04/03 01:25:16;;;;;;;10.00;3.65;;;8.00;58.00;;;;;;6245576;22;20320;-79
2021/04/03 01:28:26;;;;;;;4.40;2.90;;;7.90;58.60;;;;;;6219952;23;20005;-79
2021/04/03 01:30:52;;;;;;;6.90;3.30;;;7.90;58.80;;;;;;6245560;23;20000;-78
2021/04/03 01:33:21;;;;;;;10.15;3.58;;;7.80;58.80;;;;;;6244273;23;20004;-78
2021/04/03 01:36:05;;;;;;;7.93;3.88;;;7.70;59.40;;;;;;6245204;23;20019;-78
2021/04/03 01:38:45;;;;;;;6.97;3.38;;;7.70;59.20;;;;;;6245309;23;20020;-79
2021/04/03 01:41:14;;;;;;;6.43;4.00;;;7.60;59.30;;;;;;6245656;23;20000;-79
2021/04/03 01:43:44;;;;;;;8.27;3.30;;;7.50;59.80;;;;;;6245294;23;20008;-77
2021/04/03 01:46:11;;;;;;;6.65;3.58;;;7.50;59.70;;;;;;6246127;22;20012;-79
2021/04/03 01:48:40;;;;;;;6.78;3.80;;;7.50;60.10;;;;;;6245703;22;20003;-78
2021/04/03 01:51:07;;;;;;;6.33;3.40;;;7.50;60.00;;;;;;6244371;23;19996;-78
2021/04/03 01:53:34;;;;;;;9.90;3.72;;;7.40;60.20;;;;;;6243952;23;20087;-79
2021/04/03 01:56:01;;;;;;;9.80;3.95;;;7.50;60.30;;;;;;6245229;23;20019;-79
2021/04/03 01:58:29;;;;;;;6.47;3.17;;;7.50;59.90;;;;;;6244573;23;20007;-78
2021/04/03 02:00:55;;;;;;;3.90;2.85;;;7.60;60.00;;;;;;6244977;23;20424;-79
2021/04/03 02:03:21;;;;;;;6.80;3.03;;;7.60;59.30;;;;;;6243869;23;20008;-79
2021/04/03 02:05:48;;;;;;;9.50;3.60;;;7.30;60.00;;;;;;6270561;22;20319;-78
2021/04/03 02:08:16;;;;;;;6.30;3.30;;;7.30;60.60;;;;;;6244740;23;20000;-78
2021/04/03 02:10:43;;;;;;;9.13;3.77;;;7.10;60.90;;;;;;6245758;22;20057;-77
2021/04/03 02:13:10;;;;;;;8.33;3.87;;;6.90;61.80;;;;;;6244048;23;20339;-78
2021/04/03 02:15:36;;;;;;;7.40;3.30;;;6.80;62.70;;;;;;6244990;23;20008;-78
2021/04/03 02:18:05;;;;;;;10.27;3.63;;;6.70;63.40;;;;;;6244478;23;20008;-77
2021/04/03 02:20:32;;;;;;;6.37;3.80;;;6.60;63.40;;;;;;6243506;23;20455;-76
2021/04/03 02:22:58;;;;;;;9.20;4.00;;;6.60;63.40;;;;;;6269913;22;20331;-77
2021/04/03 02:25:23;;;;;;;8.03;3.40;;;6.60;63.60;;;;;;6245295;23;20063;-78
2021/04/03 02:27:49;;;;;;;12.37;3.57;;;6.60;63.90;;;;;;6244834;23;20027;-77
2021/04/03 02:30:18;;;;;;;8.17;3.77;;;6.40;64.40;;;;;;6244605;23;20004;-77
2021/04/03 02:32:48;;;;;;;7.53;3.33;;;6.50;65.00;;;;;;6219051;23;20004;-78
2021/04/03 02:35:19;;;;;;;7.63;3.47;;;6.50;65.10;;;;;;6246328;23;19996;-77
2021/04/03 02:37:46;;;;;;;6.97;3.83;;;6.60;64.70;;;;;;6243906;23;20000;-77
2021/04/03 02:40:13;;;;;;;6.47;3.07;;;6.70;64.10;;;;;;6245892;22;20419;-77
2021/04/03 02:42:59;;;;;;;7.00;3.50;;;6.60;64.40;;;;;;6243134;23;20094;-77
2021/04/03 02:45:26;;;;;;;6.03;3.57;;;6.60;65.00;;;;;;6244911;23;20187;-78
2021/04/03 02:47:59;;;;;;;5.43;3.23;;;6.60;65.90;;;;;;6244068;23;20008;-78
2021/04/03 02:50:39;;;;;;;9.20;3.60;;;6.70;64.20;;;;;;6268900;22;20004;-77
2021/04/03 02:53:08;;;;;;;5.77;3.47;;;6.70;65.30;;;;;;6243946;23;20493;-77
2021/04/03 02:55:37;;;;;;;10.23;3.27;;;6.70;65.00;;;;;;6243189;23;20427;-77
2021/04/03 02:58:05;;;;;;;7.13;3.40;;;6.70;64.80;;;;;;6245477;23;20004;-77
2021/04/03 03:00:31;;;;;;;6.57;3.57;;;6.80;64.40;;;;;;6242181;23;20027;-77
2021/04/03 03:02:58;;;;;;;6.37;3.43;;;6.80;65.20;;;;;;6243543;23;20004;-77
2021/04/03 03:05:24;;;;;;;4.63;3.10;;;6.80;64.90;;;;;;6242867;23;20348;-78
2021/04/03 03:07:50;;;;;;;8.10;3.20;;;6.90;64.70;;;;;;6243977;23;20000;-77
2021/04/03 03:10:18;;;;;;;7.83;3.20;;;6.90;63.90;;;;;;6244331;23;20008;-78
2021/04/03 03:12:56;;;;;;;6.37;3.10;;;6.90;64.80;;;;;;6242455;23;20012;-78
2021/04/03 03:15:30;;;;;;;5.70;3.23;;;6.90;64.00;;;;;;6244349;23;20061;-78
2021/04/03 03:17:56;;;;;;;6.23;3.10;;;6.90;63.80;;;;;;6245745;23;20004;-79
2021/04/03 03:20:22;;;;;;;8.87;3.20;;;7.00;64.80;;;;;;6244288;23;20040;-79
2021/04/03 03:22:49;;;;;;;6.43;3.10;;;7.10;63.80;;;;;;6245068;23;20521;-79
2021/04/03 03:25:15;;;;;;;5.03;3.13;;;7.00;64.30;;;;;;6246061;23;20001;-79
2021/04/03 03:27:46;;;;;;;6.37;3.23;;;7.00;64.70;;;;;;6242728;23;20012;-79
2021/04/03 03:30:15;;;;;;;5.93;3.27;;;7.00;64.40;;;;;;6245767;23;19996;-79
2021/04/03 03:32:41;;;;;;;5.47;3.23;;;7.00;65.00;;;;;;6243332;23;20443;-79
2021/04/03 03:35:07;;;;;;;4.60;2.77;;;7.00;65.50;;;;;;6244114;23;20317;-78
2021/04/03 03:37:34;;;;;;;5.70;3.40;;;7.10;65.20;;;;;;6244485;23;20436;-78
2021/04/03 03:40:00;;;;;;;9.93;3.87;;;7.10;65.10;;;;;;6244121;23;20051;-78
2021/04/03 03:42:26;;;;;;;7.77;3.87;;;7.10;64.60;;;;;;6243497;23;20055;-79
2021/04/03 03:44:53;;;;;;;13.23;4.70;;;7.20;64.00;;;;;;6244718;23;20016;-79
2021/04/03 03:47:19;;;;;;;5.77;3.87;;;7.20;64.00;;;;;;6269538;22;20066;-78
2021/04/03 03:49:44;;;;;;;8.20;4.30;;;7.20;63.80;;;;;;6243553;23;20221;-78
2021/04/03 03:52:10;;;;;;;10.50;4.57;;;7.20;63.80;;;;;;6245426;23;20443;-79
2021/04/03 03:54:36;;;;;;;14.53;4.20;;;7.10;64.50;;;;;;6268644;22;20084;-78
2021/04/03 03:57:03;;;;;;;8.03;3.37;;;7.20;64.80;;;;;;6245390;23;20072;-78
2021/04/03 03:59:29;;;;;;;7.37;3.53;;;7.20;64.90;;;;;;6269341;22;20004;-78
2021/04/03 04:01:55;;;;;;;11.70;4.23;;;7.20;63.60;;;;;;6245308;23;20004;-78
2021/04/03 04:04:21;;;;;;;6.80;3.73;;;7.20;62.80;;;;;;6245698;23;20090;-79
2021/04/03 04:06:47;;;;;;;7.73;3.73;;;7.20;64.10;;;;;;6246315;23;20020;-79
2021/04/03 04:09:13;;;;;;;9.15;4.03;;;7.20;64.00;;;;;;6246098;23;20001;-78
2021/04/03 04:11:38;;;;;;;6.73;3.83;;;7.30;62.70;;;;;;6244781;23;20396;-78
2021/04/03 04:14:04;;;;;;;10.03;3.80;;;7.30;62.20;;;;;;6245490;23;20087;-78
2021/04/03 04:16:30;;;;;;;5.53;3.50;;;7.30;61.80;;;;;;6246974;23;20431;-78
2021/04/03 04:18:55;;;;;;;9.47;3.60;;;7.30;61.30;;;;;;6246417;23;20031;-78
2021/04/03 04:21:21;;;;;;;6.63;3.30;;;7.40;61.50;;;;;;6247360;23;20101;-79
2021/04/03 04:23:47;;;;;;;10.33;3.97;;;7.40;61.60;;;;;;6271189;22;20032;-79
2021/04/03 04:26:13;;;;;;;8.07;3.37;;;7.40;61.10;;;;;;6271771;22;20300;-79
2021/04/03 04:28:38;;;;;;;6.67;3.37;;;7.50;61.10;;;;;;6245342;23;20102;-78
2021/04/03 04:31:05;;;;;;;6.57;3.77;;;7.60;61.00;;;;;;6246070;23;20004;-79
2021/04/03 04:33:31;;;;;;;7.07;3.13;;;7.60;61.00;;;;;;6246317;22;20083;-78
2021/04/03 04:35:56;;;;;;;8.48;3.80;;;7.60;60.80;;;;;;6246423;23;20011;-79
2021/04/03 04:38:22;;;;;;;5.60;3.50;;;7.60;60.80;;;;;;6245809;23;20427;-79
2021/04/03 04:40:48;;;;;;;8.03;3.33;;;7.60;61.00;;;;;;6246937;23;20569;-78
2021/04/03 04:43:14;;;;;;;9.27;3.37;;;7.70;61.00;;;;;;6246169;23;20032;-79
2021/04/03 04:45:40;;;;;;;8.10;3.67;;;7.70;60.70;;;;;;6245430;23;20004;-78
2021/04/03 04:48:06;;;;;;;6.23;3.23;;;7.60;60.70;;;;;;6271344;22;20446;-78
2021/04/03 04:50:31;;;;;;;8.85;3.13;;;7.60;60.70;;;;;;6245667;23;19996;-77
2021/04/03 04:52:57;;;;;;;5.13;2.87;;;7.60;61.10;;;;;;6246564;23;20062;-78
2021/04/03 04:55:23;;;;;;;11.30;2.90;;;7.60;61.50;;;;;;6247170;23;20003;-78
2021/04/03 04:57:48;;;;;;;5.37;3.20;;;7.60;61.10;;;;;;6246499;23;20503;-79
2021/04/03 05:00:14;;;;;;;6.50;3.20;;;7.60;61.70;;;;;;6247404;23;20041;-79
2021/04/03 05:02:40;;;;;;;8.07;3.50;;;7.60;62.90;;;;;;6243523;23;20018;-78
2021/04/03 05:05:06;;;;;;;5.70;2.90;;;7.60;62.50;;;;;;6246548;23;20036;-78
2021/04/03 05:07:32;;;;;;;6.50;2.92;;;7.60;62.50;;;;;;6270644;22;20004;-78
2021/04/03 05:09:58;;;;;;;5.93;3.23;;;7.60;62.50;;;;;;6245748;23;20012;-78
2021/04/03 05:12:23;;;;;;;9.25;4.00;;;7.60;63.00;;;;;;6246831;23;21201;-78
2021/04/03 05:14:49;;;;;;;6.33;3.37;;;7.50;63.20;;;;;;6244719;23;20896;-78
2021/04/03 05:17:15;;;;;;;6.47;2.90;;;7.50;63.80;;;;;;6245372;23;20008;-79
2021/04/03 05:19:40;;;;;;;4.97;3.17;;;7.50;63.30;;;;;;6244429;23;20135;-78
2021/04/03 05:22:06;;;;;;;5.82;2.88;;;7.60;62.40;;;;;;6246781;23;19996;-78
2021/04/03 05:24:32;;;;;;;7.72;2.92;;;7.60;62.20;;;;;;6246562;23;20320;-79
2021/04/03 05:26:58;;;;;;;6.03;3.03;;;7.70;61.90;;;;;;6246622;23;19996;-78
2021/04/03 05:29:23;;;;;;;4.13;2.70;;;7.70;61.60;;;;;;6245250;23;20335;-78
2021/04/03 05:31:49;;;;;;;5.53;3.07;;;7.70;61.70;;;;;;6243034;23;20005;-78
2021/04/03 05:34:15;;;;;;;5.78;2.60;;;7.70;61.40;;;;;;6246687;23;20004;-77
2021/04/03 05:36:41;;;;;;;5.00;2.22;;;7.80;61.80;;;;;;6243554;23;20000;-77
2021/04/03 05:39:06;;;;;;;6.83;2.40;;;7.80;60.70;;;;;;6246172;23;19996;-78
2021/04/03 05:41:32;;;;;;;5.95;2.58;;;7.90;60.60;;;;;;6245631;23;20000;-78
2021/04/03 05:44:01;;;;;;;4.63;2.42;;;7.90;60.30;;;;;;6243798;23;20066;-77
2021/04/03 05:46:26;;;;;;;4.73;2.50;;;7.90;60.40;;;;;;6244207;23;20012;-79
2021/04/03 05:48:52;;;;;;;3.93;2.20;;;8.00;60.10;;;;;;6244209;23;20008;-78
2021/04/03 05:51:19;;;;;;;5.95;2.20;;;8.00;59.70;;;;;;6245792;23;20015;-78
2021/04/03 05:53:45;;;;;;;7.85;2.33;;;8.10;59.90;;;;;;6244658;23;20040;-78
2021/04/03 05:56:13;;;;;;;8.60;2.85;;;8.10;59.40;;;;;;6246508;23;20000;-78
2021/04/03 05:58:40;;;;;;;4.45;1.95;;;8.00;60.00;;;;;;6244399;23;20296;-78
2021/04/03 06:01:07;;;;;;;6.65;2.30;;;8.00;60.30;;;;;;6244448;23;20005;-78
2021/04/03 06:03:33;;;;;;;9.60;2.50;;;7.90;60.40;;;;;;6244554;23;20399;-78
2021/04/03 06:06:00;;;;;;;5.28;2.10;;;8.00;60.20;;;;;;6243401;23;20031;-77
2021/04/03 06:08:33;;;;;;;8.25;2.60;;;8.00;59.50;;;;;;6244405;23;20079;-78
2021/04/03 06:11:22;;;;;;;4.38;2.45;;;8.00;59.80;;;;;;6244377;23;20008;-78
2021/04/03 06:14:00;;;;;;;3.63;2.13;;;8.10;59.60;;;;;;6243757;23;20036;-78
2021/04/03 06:16:31;;;;;;;4.20;2.50;;;8.10;59.40;;;;;;6244929;23;20004;-78
2021/04/03 06:19:10;;;;;;;5.88;2.55;;;8.10;59.80;;;;;;6243699;23;20115;-78
2021/04/03 06:21:40;;;;;;;8.48;2.78;;;8.10;59.60;;;;;;6243248;23;20012;-77
2021/04/03 06:24:29;;;;;;;8.05;2.65;;;8.30;60.00;;;;;;6246120;23;20434;-79
2021/04/03 06:26:58;;;;;;;4.80;2.28;;;8.40;59.70;;;;;;6245496;23;20013;-77
2021/04/03 06:29:28;;;;;;;5.28;2.55;;;8.50;58.80;;;;;;6243959;23;20010;-77
2021/04/03 06:31:55;;;;;;;4.78;2.72;;;8.50;59.50;;;;;;6243887;23;20113;-77
2021/04/03 06:34:34;;;;;;;7.88;2.88;;;8.50;59.00;;;;;;6269788;22;19996;-77
2021/04/03 06:37:00;;;;;;;5.15;2.20;;;8.60;59.00;;;;;;6243382;23;20012;-77
2021/04/03 06:39:27;;;;;;;5.50;2.90;;;8.60;58.60;;;;;;6244220;23;20038;-78
2021/04/03 06:41:52;;;;;;;5.88;2.70;;;8.60;58.70;;;;;;6243601;23;20004;-78
2021/04/03 06:44:19;;;;;;;6.47;2.85;;;8.60;58.60;;;;;;6244222;23;20020;-79
2021/04/03 06:46:45;;;;;;;6.20;2.92;;;8.60;58.60;;;;;;6268975;22;20008;-78
2021/04/03 06:49:12;;;;;;;5.95;2.60;;;8.60;59.10;;;;;;6246053;23;20435;-78
2021/04/03 06:51:39;;;;;;;5.25;2.60;;;8.70;59.70;;;;;;6243874;23;20001;-76
2021/04/03 06:54:06;;;;;;;6.63;2.45;;;8.70;58.20;;;;;;6245395;23;20008;-77
2021/04/03 06:56:34;;;;;;;7.65;2.60;;;8.70;58.10;;;;;;6244259;23;20031;-78
2021/04/03 06:59:04;;;;;;;3.22;2.08;;;8.60;57.80;;;;;;6244075;23;20004;-78
2021/04/03 07:01:37;;;;;;;5.32;2.50;;;8.60;58.40;;;;;;6244409;23;20091;-78
2021/04/03 07:04:10;;;;;;;6.28;2.25;;;8.60;57.90;;;;;;6269221;22;20391;-78
2021/04/03 07:06:36;;;;;;;5.13;2.30;;;8.60;57.50;;;;;;6245908;23;20027;-77
2021/04/03 07:09:05;;;;;;;6.05;2.53;;;8.60;57.20;;;;;;6243594;23;20036;-78
2021/04/03 07:11:32;;;;;;;5.22;2.50;;;8.60;57.90;;;;;;6244119;23;20012;-77
2021/04/03 07:14:02;;;;;;;7.65;2.60;;;8.60;58.90;;;;;;6243031;23;20079;-77
2021/04/03 07:16:29;;;;;;;7.50;2.72;;;8.50;58.50;;;;;;6217341;23;20018;-77
2021/04/03 07:18:56;;;;;;;8.68;3.50;;;8.50;58.10;;;;;;6244453;23;20055;-78
2021/04/03 07:21:22;;;;;;;9.77;3.05;;;8.50;58.60;;;;;;6269738;22;20099;-78
2021/04/03 07:23:50;;;;;;;5.65;2.50;;;8.60;59.10;;;;;;6245182;22;20007;-79
2021/04/03 07:26:17;;;;;;;7.50;2.60;;;8.60;58.70;;;;;;6245788;23;20012;-78
2021/04/03 07:28:43;;;;;;;7.38;2.90;;;8.50;58.20;;;;;;6243661;23;20004;-79
2021/04/03 07:31:10;;;;;;;5.60;2.63;;;8.50;57.80;;;;;;6245453;23;20003;-78
2021/04/03 07:33:49;;;;;;;7.85;2.42;;;8.50;57.80;;;;;;6244096;23;20011;-78
2021/04/03 07:36:40;;;;;;;4.75;2.15;;;8.50;57.70;;;;;;6244499;23;20064;-79
2021/04/03 07:39:36;;;;;;;6.72;2.65;;;8.50;57.00;;;;;;6244372;23;19997;-78
2021/04/03 07:42:02;;;;;;;6.95;2.53;;;8.60;58.20;;;;;;6245797;23;20086;-78
2021/04/03 07:44:36;;;;;;;5.43;2.78;;;8.60;57.40;;;;;;6246273;23;20043;-77
2021/04/03 07:47:21;;;;;;;7.38;2.60;;;8.60;56.90;;;;;;6246790;23;20003;-78
2021/04/03 07:49:47;;;;;;;8.68;3.42;;;8.50;57.70;;;;;;6244179;23;20008;-77
2021/04/03 07:52:13;;;;;;;5.00;2.70;;;8.50;58.30;;;;;;6271665;22;20015;-78
2021/04/03 07:54:39;;;;;;;6.82;2.88;;;8.50;58.50;;;;;;6247463;23;20003;-78
2021/04/03 07:57:09;;;;;;;7.30;3.05;;;8.50;58.10;;;;;;6247857;22;20000;-78
2021/04/03 07:59:44;;;;;;;4.75;2.20;;;8.60;58.30;;;;;;6246029;23;20079;-78
2021/04/03 08:02:24;;;;;;;5.00;2.63;;;8.60;56.90;;;;;;6245718;22;20043;-78
2021/04/03 08:04:50;;;;;;;5.78;2.38;;;8.70;56.80;;;;;;6270270;22;20015;-78
2021/04/03 08:07:19;;;;;;;3.30;2.20;;;8.70;57.10;;;;;;6245571;23;20426;-78
2021/04/03 08:09:45;;;;;;;5.35;2.35;;;8.80;56.10;;;;;;6246421;23;20022;-78
2021/04/03 08:12:10;;;;;;;6.32;2.70;;;8.90;55.60;;;;;;6248088;23;20435;-77
2021/04/03 08:14:36;;;;;;;5.45;2.30;;;8.90;55.50;;;;;;6248497;23;20008;-78
2021/04/03 08:17:05;;;;;;;4.75;2.17;;;8.90;55.50;;;;;;6243679;23;20000;-79
2021/04/03 08:19:34;;;;;;;4.13;1.98;;;8.90;55.70;;;;;;6246377;23;20003;-76
2021/04/03 08:22:00;;;;;;;5.47;2.13;;;8.80;55.70;;;;;;6245086;23;20000;-76
2021/04/03 08:24:26;;;;;;;3.58;2.00;;;8.80;56.60;;;;;;6245610;23;20014;-76
2021/04/03 08:26:53;;;;;;;4.20;2.03;;;8.80;55.90;;;;;;6244977;23;20028;-76
2021/04/03 08:29:29;;;;;;;4.10;1.63;;;8.90;55.70;;;;;;6245238;23;20071;-77
2021/04/03 08:31:56;;;;;;;4.03;1.83;;;8.90;54.70;;;;;;6244681;23;20000;-74
2021/04/03 08:34:22;;;;;;;4.05;1.52;;;9.00;54.50;;;;;;6245216;23;20027;-73
2021/04/03 08:36:49;;;;;;;6.53;1.65;;;9.00;53.70;;;;;;6244825;23;20004;-75
2021/04/03 08:39:17;;;;;;;3.63;1.40;;;9.00;53.60;;;;;;6245451;23;20086;-76
2021/04/03 08:41:49;;;;;;;4.50;1.55;;;9.00;53.50;;;;;;6246443;23;20023;-75
2021/04/03 08:44:30;;;;;;;3.90;1.63;;;9.10;53.60;;;;;;6244608;23;20012;-75
2021/04/03 08:47:18;;;;;;;2.90;1.47;;;9.10;53.80;;;;;;6270116;22;20070;-74
2021/04/03 08:49:43;;;;;;;5.10;1.63;;;9.10;53.20;;;;;;6244662;23;20242;-79
2021/04/03 08:52:10;;;;;;;2.63;1.40;;;9.10;53.30;;;;;;6243314;23;20001;-75
2021/04/03 08:54:37;;;;;;;4.45;1.50;;;9.10;53.30;;;;;;6244872;23;20032;-75
2021/04/03 08:57:18;;;;;;;6.30;1.42;;;9.10;52.50;;;;;;6243714;23;19997;-76
2021/04/03 08:59:44;;;;;;;3.75;1.60;;;9.20;52.90;;;;;;6218582;23;20023;-77
2021/04/03 09:02:10;;;;;;;5.45;1.52;;;9.20;52.40;;;;;;6243070;23;20091;-76
2021/04/03 09:04:36;;;;;;;5.60;1.20;;;9.30;52.50;;;;;;6243983;23;20036;-75
2021/04/03 09:07:02;;;;;;;3.00;1.45;;;9.30;52.70;;;;;;6242105;23;20320;-76
2021/04/03 09:09:28;;;;;;;6.68;2.05;;;9.40;52.40;;;;;;6245602;23;19992;-75
2021/04/03 09:12:03;;;;;;;2.03;1.25;;;9.40;53.20;;;;;;6268626;22;20440;-76
2021/04/03 09:14:31;;;;;;;5.25;1.30;;;9.40;53.30;;;;;;6246368;23;20008;-78
2021/04/03 09:16:58;;;;;;;5.40;1.60;;;9.40;51.60;;;;;;6245337;22;20000;-75
2021/04/03 09:19:35;;;;;;;6.25;1.33;;;9.40;51.00;;;;;;6246116;23;20078;-76
2021/04/03 09:22:01;;;;;;;5.30;1.30;;;9.40;51.40;;;;;;6243466;23;20501;-77
2021/04/03 09:24:42;;;;;;;2.38;1.30;;;9.40;51.90;;;;;;6244439;23;20015;-76
2021/04/03 09:27:10;;;;;;;3.88;1.17;;;9.30;51.30;;;;;;6243219;23;20008;-76
2021/04/03 09:29:37;;;;;;;3.33;1.30;;;9.30;51.50;;;;;;6246024;23;20024;-77
2021/04/03 09:32:07;;;;;;;3.60;1.33;;;9.40;51.30;;;;;;6243914;23;20008;-76
2021/04/03 09:34:34;;;;;;;3.25;1.08;;;9.50;51.40;;;;;;6244557;23;20027;-76
2021/04/03 09:37:19;;;;;;;3.55;1.20;;;9.50;51.90;;;;;;6243478;23;20115;-78
2021/04/03 09:39:53;;;;;;;6.18;1.52;;;9.40;50.70;;;;;;6244839;23;20131;-76
2021/04/03 09:42:22;;;;;;;2.17;1.35;;;9.40;51.20;;;;;;6243180;23;20073;-77
2021/04/03 09:44:48;;;;;;;4.38;1.35;;;9.50;51.10;;;;;;6243773;23;20435;-77
2021/04/03 09:47:14;;;;;;;2.85;1.02;;;9.60;50.90;;;;;;6244597;23;20087;-77
2021/04/03 09:49:41;;;;;;;3.28;1.20;;;9.60;49.60;;;;;;6244539;23;20083;-74
2021/04/03 09:52:08;;;;;;;2.90;1.00;;;9.70;49.40;;;;;;6268960;22;20079;-77
2021/04/03 09:54:34;;;;;;;1.88;0.90;;;9.60;49.50;;;;;;6244716;23;20063;-77
2021/04/03 09:57:03;;;;;;;2.65;1.00;;;9.70;49.60;;;;;;6243638;23;20304;-77
2021/04/03 09:59:29;;;;;;;2.58;1.02;;;9.70;50.40;;;;;;6244423;23;20008;-77
2021/04/03 10:01:56;;;;;;;1.48;0.93;;;9.70;49.90;;;;;;6245178;23;19998;-77
2021/04/03 10:04:22;;;;;;;3.58;1.38;;;9.70;49.00;;;;;;6268950;22;20028;-76
2021/04/03 10:06:48;;;;;;;1.73;0.98;;;9.70;50.10;;;;;;6243560;23;20435;-77
2021/04/03 10:09:13;;;;;;;3.92;1.13;;;9.80;49.60;;;;;;6246146;23;20079;-78
2021/04/03 10:11:39;;;;;;;4.97;1.17;;;9.80;48.10;;;;;;6245865;23;20000;-77
2021/04/03 10:14:05;;;;;;;5.40;0.98;;;9.80;50.20;;;;;;6243012;23;20435;-77
2021/04/03 10:16:30;;;;;;;3.22;1.20;;;9.90;49.00;;;;;;6243919;23;20008;-77
2021/04/03 10:18:56;;;;;;;3.58;1.20;;;9.90;48.90;;;;;;6268985;22;20427;-75
2021/04/03 10:21:23;;;;;;;3.95;1.60;;;9.90;48.00;;;;;;6245563;23;20011;-75
2021/04/03 10:23:49;;;;;;;4.88;1.08;;;9.90;48.80;;;;;;6244814;23;20370;-74
2021/04/03 10:26:15;;;;;;;3.33;1.33;;;9.90;48.80;;;;;;6245839;23;20419;-75
2021/04/03 10:28:41;;;;;;;2.60;1.30;;;10.00;48.40;;;;;;6269208;22;20054;-75
2021/04/03 10:31:06;;;;;;;2.05;1.10;;;9.90;49.20;;;;;;6244064;23;19996;-73
2021/04/03 10:33:32;;;;;;;1.98;0.82;;;10.00;50.20;;;;;;6243479;23;20458;-74
2021/04/03 10:35:58;;;;;;;2.97;1.17;;;10.00;49.10;;;;;;6243902;23;20011;-75
2021/04/03 10:38:23;;;;;;;3.25;1.17;;;10.00;49.10;;;;;;6244665;23;20010;-76
2021/04/03 10:40:49;;;;;;;3.72;1.20;;;10.00;48.40;;;;;;6242690;23;20083;-75
2021/04/03 10:43:15;;;;;;;4.57;1.50;;;10.00;47.80;;;;;;6242273;23;20043;-75
2021/04/03 10:45:41;;;;;;;3.08;1.23;;;9.90;47.70;;;;;;6267989;22;20008;-76
2021/04/03 10:48:07;;;;;;;3.15;1.13;;;9.90;47.70;;;;;;6242200;23;20004;-75
2021/04/03 10:50:33;;;;;;;5.05;1.20;;;9.90;48.40;;;;;;6243367;23;20419;-75
2021/04/03 10:52:58;;;;;;;1.85;1.00;;;10.00;48.60;;;;;;6244047;23;20004;-75
2021/04/03 10:55:24;;;;;;;2.28;1.00;;;10.10;48.90;;;;;;6269234;22;20411;-76
2021/04/03 10:57:50;;;;;;;3.83;1.40;;;10.30;49.00;;;;;;6242357;23;20012;-76
2021/04/03 11:00:16;;;;;;;4.00;1.00;;;10.30;47.80;;;;;;6244667;23;19996;-75
2021/04/03 11:02:42;;;;;;;2.75;1.10;;;10.40;48.80;;;;;;6243457;23;20015;-77
2021/04/03 11:05:08;;;;;;;3.20;1.10;;;10.50;47.90;;;;;;6242784;23;20730;-76
2021/04/03 11:07:34;;;;;;;2.65;1.10;;;10.60;46.50;;;;;;6242523;23;20087;-75
2021/04/03 11:10:00;;;;;;;1.95;0.85;;;10.80;47.20;;;;;;6244073;23;20024;-77
2021/04/03 11:12:26;;;;;;;3.10;0.90;;;10.80;47.90;;;;;;6244744;23;20032;-77
2021/04/03 11:14:52;;;;;;;1.83;1.02;;;10.80;47.00;;;;;;6242584;23;20008;-74
2021/04/03 11:17:17;;;;;;;2.70;1.05;;;10.80;46.60;;;;;;6244080;23;20034;-73
2021/04/03 11:19:43;;;;;;;1.83;1.15;;;10.80;46.50;;;;;;6242603;23;20440;-76
2021/04/03 11:22:09;;;;;;;3.42;1.20;;;10.80;45.50;;;;;;6244264;23;20000;-76
2021/04/03 11:24:34;;;;;;;3.20;1.30;;;10.70;46.30;;;;;;6245028;23;20011;-76
2021/04/03 11:27:01;;;;;;;3.20;0.93;;;10.80;46.60;;;;;;6244655;23;20000;-75
2021/04/03 11:29:27;;;;;;;2.47;1.00;;;10.80;45.90;;;;;;6242954;23;20415;-75
2021/04/03 11:31:53;;;;;;;3.40;0.82;;;10.70;46.60;;;;;;6242398;23;20004;-75
2021/04/03 11:34:18;;;;;;;2.28;1.10;;;10.70;45.90;;;;;;6243167;23;20078;-74
2021/04/03 11:36:44;;;;;;;2.75;1.05;;;10.70;45.40;;;;;;6244819;23;19996;-73
2021/04/03 11:39:10;;;;;;;4.05;1.02;;;10.70;47.00;;;;;;6244030;23;20685;-74
2021/04/03 11:41:35;;;;;;;4.43;1.27;;;10.70;46.30;;;;;;6243350;23;20309;-74
2021/04/03 11:44:01;;;;;;;3.05;1.30;;;10.80;46.50;;;;;;6267441;22;20313;-74
2021/04/03 11:46:27;;;;;;;2.35;1.15;;;10.90;46.50;;;;;;6244553;23;20008;-74
2021/04/03 11:48:53;;;;;;;4.10;0.80;;;10.90;45.50;;;;;;6242735;23;20032;-75
2021/04/03 11:51:18;;;;;;;3.25;1.05;;;10.90;44.90;;;;;;6244390;23;20007;-74
2021/04/03 11:53:44;;;;;;;2.47;1.05;;;11.00;47.50;;;;;;6242593;23;20015;-74
2021/04/03 11:56:10;;;;;;;4.05;1.10;;;11.20;46.30;;;;;;6241625;23;20008;-75
2021/04/03 11:58:35;;;;;;;4.30;1.10;;;11.20;46.50;;;;;;6243299;23;20130;-76
2021/04/03 12:01:03;;;;;;;2.50;1.00;;;11.20;45.10;;;;;;6244035;23;19997;-76
2021/04/03 12:03:30;;;;;;;5.65;1.02;;;11.20;45.00;;;;;;6243347;23;20396;-77
2021/04/03 12:05:56;;;;;;;2.15;1.05;;;11.10;44.60;;;;;;6242194;23;20035;-77
2021/04/03 12:08:21;;;;;;;1.50;0.70;;;11.10;44.50;;;;;;6268601;22;20319;-76
2021/04/03 12:10:47;;;;;;;3.70;1.20;;;11.20;44.00;;;;;;6243201;23;20011;-76
2021/04/03 12:13:13;;;;;;;3.58;1.23;;;11.20;44.30;;;;;;6241718;23;20062;-76
2021/04/03 12:15:39;;;;;;;2.92;1.10;;;11.30;44.70;;;;;;6242149;23;20024;-75
2021/04/03 12:18:05;;;;;;;2.45;1.25;;;11.60;46.10;;;;;;6242284;23;20116;-76
2021/04/03 12:20:32;;;;;;;3.10;1.10;;;11.90;45.60;;;;;;6244257;23;20020;-77
2021/04/03 12:22:59;;;;;;;3.45;0.90;;;12.30;44.30;;;;;;6242557;23;20012;-74
2021/04/03 12:25:25;;;;;;;3.53;1.17;;;12.40;40.90;;;;;;6244068;23;20079;-76
2021/04/03 12:27:50;;;;;;;2.30;0.70;;;12.40;41.60;;;;;;6244567;23;20435;-73
2021/04/03 12:30:16;;;;;;;1.70;0.90;;;12.50;41.20;;;;;;6269728;22;20004;-75
2021/04/03 12:32:42;;;;;;;3.28;1.05;;;12.70;40.10;;;;;;6270429;22;20001;-74
2021/04/03 12:35:08;;;;;;;1.83;0.70;;;13.00;39.90;;;;;;6269718;22;20004;-75
2021/04/03 12:37:34;;;;;;;1.98;1.05;;;13.20;40.20;;;;;;6245152;23;20013;-75
2021/04/03 12:40:00;;;;;;;1.70;0.68;;;13.10;41.60;;;;;;6244281;23;20008;-75
2021/04/03 12:42:26;;;;;;;4.15;1.00;;;13.40;41.10;;;;;;6244017;23;20466;-75
2021/04/03 12:44:51;;;;;;;1.85;0.90;;;13.80;41.00;;;;;;6244497;23;20016;-73
2021/04/03 12:47:17;;;;;;;5.38;1.00;;;14.30;40.60;;;;;;6245376;23;20000;-74
2021/04/03 12:49:43;;;;;;;2.78;0.88;;;14.70;39.70;;;;;;6244987;23;20435;-75
2021/04/03 12:52:08;;;;;;;3.95;1.30;;;14.80;37.60;;;;;;6244255;23;20067;-76
2021/04/03 12:54:34;;;;;;;1.42;0.65;;;14.60;37.60;;;;;;6246306;23;20006;-75
2021/04/03 12:57:00;;;;;;;3.05;0.88;;;14.40;37.40;;;;;;6244828;23;19996;-76
2021/04/03 12:59:26;;;;;;;2.75;0.70;;;14.20;37.90;;;;;;6245206;23;20000;-76
2021/04/03 13:01:51;;;;;;;2.88;0.93;;;14.00;37.40;;;;;;6245466;23;20308;-79